| time (UTC) | temp F | wind direction | speed MPH | gust MPH | rain 1hr in | rain 24hr in | rain mn in | humidity % | barometer mb |
| 20260902110505 | 64 | 355 | 1.0 | 3.0 | 0.03 | 0.35 | 0.34 | 92 | 1009.9 |
| 20260902105005 | 64 | 140 | 0.0 | 0.0 | 0.03 | 0.35 | 0.34 | 92 | 1010.8 |
| 20260902104506 | 64 | 140 | 0.0 | 0.0 | 0.03 | 0.35 | 0.34 | 92 | 1011.2 |
| 20260902104006 | 64 | 140 | 0.0 | 2.0 | 0.03 | 0.35 | 0.34 | 92 | 1011.4 |
| 20260902103505 | 64 | 140 | 1.0 | 2.0 | 0.03 | 0.35 | 0.34 | 92 | 1010.7 |
| 20260902102505 | 64 | 140 | 1.0 | 3.0 | 0.03 | 0.35 | 0.34 | 92 | 1011.4 |
| 20260902102005 | 64 | 140 | 2.0 | 5.0 | 0.03 | 0.35 | 0.34 | 92 | 1011.7 |
| 20260902101505 | 64 | 162 | 4.0 | 6.0 | 0.03 | 0.35 | 0.34 | 92 | 1011.6 |
| 20260902101006 | 64 | 164 | 2.0 | 9.0 | 0.02 | 0.34 | 0.33 | 92 | 1011.3 |
| 20260902100505 | 64 | 175 | 6.0 | 9.0 | 0.00 | 0.32 | 0.31 | 92 | 1012.3 |
| 20260902100005 | 64 | 162 | 2.0 | 5.0 | 0.00 | 0.32 | 0.31 | 92 | 1010.7 |
| 20260902095506 | 63 | 171 | 1.0 | 3.0 | 0.00 | 0.32 | 0.31 | 92 | 1010.5 |
| 20260902095005 | 63 | 33 | 1.0 | 2.0 | 0.00 | 0.32 | 0.31 | 92 | 1010.5 |
| 20260902094505 | 63 | 33 | 0.0 | 2.0 | 0.00 | 0.32 | 0.31 | 92 | 1010.4 |
| 20260902094006 | 63 | 33 | 0.0 | 2.0 | 0.00 | 0.32 | 0.31 | 92 | 1010.2 |
| 20260902093505 | 63 | 33 | 0.0 | 2.0 | 0.00 | 0.32 | 0.31 | 92 | 1009.8 |
| 20260902093005 | 63 | 33 | 1.0 | 2.0 | 0.00 | 0.32 | 0.31 | 92 | 1009.4 |
| 20260902092505 | 63 | 33 | 0.0 | 1.0 | 0.00 | 0.32 | 0.31 | 92 | 1009.5 |
| 20260902092006 | 63 | 33 | 0.0 | 2.0 | 0.00 | 0.32 | 0.31 | 92 | 1009.8 |
| 20260902091007 | 64 | 7 | 1.0 | 3.0 | 0.00 | 0.32 | 0.31 | 92 | 1009.7 |
| 20260902090506 | 64 | 5 | 0.0 | 2.0 | 0.00 | 0.32 | 0.31 | 92 | 1009.8 |
| 20260902090006 | 64 | 14 | 0.0 | 2.0 | 0.00 | 0.32 | 0.31 | 92 | 1009.9 |
| 20260902085006 | 64 | 40 | 1.0 | 3.0 | 0.00 | 0.32 | 0.31 | 92 | 1009.8 |
| 20260902084507 | 64 | 163 | 0.0 | 2.0 | 0.00 | 0.32 | 0.31 | 92 | 1009.7 |
| 20260902084006 | 65 | 163 | 1.0 | 5.0 | 0.00 | 0.32 | 0.31 | 92 | 1009.8 |
| 20260902083506 | 65 | 163 | 0.0 | 1.0 | 0.00 | 0.32 | 0.31 | 92 | 1009.6 |
| 20260902083006 | 65 | 163 | 0.0 | 1.0 | 0.00 | 0.32 | 0.31 | 92 | 1009.7 |
| 20260902082506 | 65 | 163 | 0.0 | 1.0 | 0.00 | 0.32 | 0.31 | 92 | 1009.6 |
| 20260902082007 | 65 | 163 | 0.0 | 1.0 | 0.00 | 0.32 | 0.31 | 92 | 1009.9 |
| 20260902081506 | 65 | 163 | 0.0 | 2.0 | 0.00 | 0.32 | 0.31 | 92 | 1009.9 |
| 20260902081007 | 65 | 163 | 0.0 | 0.0 | 0.00 | 0.32 | 0.31 | 92 | 1010.0 |
| 20260902080506 | 65 | 163 | 0.0 | 3.0 | 0.00 | 0.32 | 0.31 | 92 | 1009.9 |
| 20260902080006 | 65 | 3 | 1.0 | 3.0 | 0.01 | 0.32 | 0.31 | 92 | 1009.7 |
| 20260902075506 | 65 | 4 | 1.0 | 6.0 | 0.02 | 0.32 | 0.31 | 92 | 1009.7 |
| 20260902075006 | 65 | 340 | 1.0 | 3.0 | 0.02 | 0.32 | 0.31 | 92 | 1009.7 |
| 20260902074507 | 65 | 72 | 3.0 | 6.0 | 0.03 | 0.32 | 0.31 | 92 | 1009.7 |
| 20260902074007 | 65 | 93 | 1.0 | 5.0 | 0.06 | 0.32 | 0.31 | 92 | 1009.9 |
| 20260902073506 | 65 | 27 | 1.0 | 3.0 | 0.21 | 0.32 | 0.31 | 92 | 1009.7 |
| 20260902072506 | 65 | 341 | 2.0 | 5.0 | 0.31 | 0.32 | 0.31 | 92 | 1010.1 |
| 20260902072007 | 66 | 70 | 1.0 | 6.0 | 0.31 | 0.32 | 0.31 | 92 | 1010.2 |
| 20260902070507 | 65 | 29 | 1.0 | 3.0 | 0.31 | 0.32 | 0.31 | 91 | 1010.3 |
| 20260902070007 | 66 | 43 | 1.0 | 5.0 | 0.30 | 0.31 | 0.30 | 91 | 1010.7 |
| 20260902065506 | 66 | 277 | 3.0 | 7.0 | 0.29 | 0.30 | 0.29 | 90 | 1012.0 |
| 20260902064506 | 67 | 286 | 2.0 | 12.0 | 0.28 | 0.29 | 0.28 | 90 | 1012.3 |
| 20260902064006 | 69 | 271 | 7.0 | 15.0 | 0.25 | 0.26 | 0.25 | 88 | 1013.0 |
| 20260902063506 | 70 | 237 | 8.0 | 26.0 | 0.10 | 0.11 | 0.10 | 87 | 1012.6 |
| 20260902063007 | 72 | 243 | 5.0 | 16.0 | 0.00 | 0.01 | 0.00 | 88 | 1010.1 |
| 20260902062507 | 72 | 243 | 2.0 | 7.0 | 0.00 | 0.01 | 0.00 | 89 | 1008.5 |
| 20260902061506 | 72 | 335 | 2.0 | 3.0 | 0.00 | 0.01 | 0.00 | 89 | 1007.9 |
| 20260902061006 | 72 | 21 | 1.0 | 3.0 | 0.00 | 0.01 | 0.00 | 90 | 1008.6 |
| 20260902060506 | 72 | 17 | 1.0 | 3.0 | 0.00 | 0.01 | 0.00 | 90 | 1008.5 |
| 20260902060006 | 72 | 17 | 1.0 | 2.0 | 0.00 | 0.01 | 0.00 | 90 | 1008.8 |
| 20260902055506 | 72 | 17 | 1.0 | 2.0 | 0.00 | 0.01 | 0.00 | 90 | 1009.1 |
| 20260902055007 | 72 | 18 | 0.0 | 1.0 | 0.00 | 0.01 | 0.00 | 90 | 1008.9 |
| 20260902054506 | 72 | 18 | 0.0 | 2.0 | 0.01 | 0.01 | 0.00 | 90 | 1008.8 |
| 20260902054007 | 72 | 18 | 1.0 | 2.0 | 0.00 | 0.01 | 0.00 | 90 | 1008.7 |
| 20260902053507 | 72 | 18 | 1.0 | 2.0 | 0.00 | 0.01 | 0.00 | 90 | 1008.6 |
| 20260902052506 | 72 | 19 | 1.0 | 3.0 | 0.00 | 0.01 | 0.00 | 89 | 1009.0 |
| 20260902052006 | 72 | 63 | 0.0 | 1.0 | 0.00 | 0.01 | 0.00 | 89 | 1009.1 |
| 20260902051506 | 72 | 63 | 0.0 | 0.0 | 0.00 | 0.01 | 0.00 | 89 | 1009.2 |
| 20260902051007 | 72 | 63 | 0.0 | 0.0 | 0.00 | 0.01 | 0.00 | 89 | 1009.0 |
| 20260902050506 | 72 | 63 | 1.0 | 2.0 | 0.00 | 0.01 | 0.00 | 89 | 1009.1 |
| 20260902050008 | 72 | 63 | 0.0 | 0.0 | 0.00 | 0.01 | 0.00 | 89 | 1009.5 |
| 20260902045006 | 73 | 63 | 0.0 | 1.0 | 0.01 | 0.01 | 0.01 | 89 | 1009.5 |
| 20260902044506 | 73 | 63 | 0.0 | 1.0 | 0.01 | 0.01 | 0.01 | 88 | 1009.3 |
| 20260902044006 | 73 | 63 | 0.0 | 0.0 | 0.00 | 0.00 | 0.00 | 88 | 1009.6 |
| 20260902043506 | 72 | 63 | 0.0 | 1.0 | 0.00 | 0.00 | 0.00 | 88 | 1009.6 |
| 20260902042506 | 73 | 63 | 0.0 | 0.0 | 0.00 | 0.00 | 0.00 | 88 | 1009.6 |
| 20260902041506 | 73 | 63 | 0.0 | 0.0 | 0.00 | 0.00 | 0.00 | 88 | 1009.4 |
| 20260902041006 | 73 | 63 | 0.0 | 0.0 | 0.00 | 0.00 | 0.00 | 88 | 1009.2 |
| 20260902040506 | 73 | 63 | 0.0 | 0.0 | 0.00 | 0.00 | 0.00 | 87 | 1009.2 |
| 20260902040006 | 73 | 63 | 0.0 | 0.0 | 0.00 | 0.00 | 0.00 | 87 | 1009.2 |
| 20260902035506 | 73 | 63 | 0.0 | 0.0 | 0.00 | 0.00 | 0.00 | 87 | 1009.2 |
| 20260902035006 | 73 | 63 | 0.0 | 2.0 | 0.00 | 0.00 | 0.00 | 87 | 1009.2 |
| 20260902034507 | 73 | 63 | 0.0 | 2.0 | 0.00 | 0.00 | 0.00 | 87 | 1009.3 |
| 20260902034007 | 73 | 63 | 0.0 | 1.0 | 0.00 | 0.00 | 0.00 | 87 | 1009.5 |
| 20260902033506 | 73 | 63 | 0.0 | 0.0 | 0.00 | 0.00 | 0.00 | 87 | 1009.7 |
| 20260902033006 | 74 | 63 | 0.0 | 0.0 | 0.00 | 0.00 | 0.00 | 86 | 1009.8 |
| 20260902032506 | 74 | 63 | 0.0 | 0.0 | 0.00 | 0.00 | 0.00 | 86 | 1009.8 |
| 20260902032006 | 74 | 63 | 0.0 | 0.0 | 0.00 | 0.00 | 0.00 | 85 | 1009.8 |
| 20260902031506 | 74 | 63 | 0.0 | 0.0 | 0.00 | 0.00 | 0.00 | 86 | 1009.7 |
| 20260902031006 | 74 | 63 | 0.0 | 0.0 | 0.00 | 0.00 | 0.00 | 85 | 1009.8 |
| 20260902030506 | 74 | 63 | 0.0 | 0.0 | 0.00 | 0.00 | 0.00 | 85 | 1009.8 |
| 20260902030006 | 74 | 63 | 0.0 | 0.0 | 0.00 | 0.00 | 0.00 | 85 | 1009.8 |
| 20260902025506 | 74 | 63 | 0.0 | 0.0 | 0.00 | 0.00 | 0.00 | 85 | 1009.9 |
| 20260902025006 | 74 | 63 | 0.0 | 0.0 | 0.00 | 0.00 | 0.00 | 85 | 1009.8 |
| 20260902024506 | 74 | 63 | 0.0 | 0.0 | 0.00 | 0.00 | 0.00 | 85 | 1009.8 |
| 20260902023506 | 74 | 63 | 0.0 | 0.0 | 0.00 | 0.00 | 0.00 | 85 | 1010.0 |
| 20260902023007 | 74 | 63 | 0.0 | 0.0 | 0.00 | 0.00 | 0.00 | 85 | 1009.9 |
| 20260902022506 | 75 | 63 | 0.0 | 1.0 | 0.00 | 0.00 | 0.00 | 84 | 1009.8 |
| 20260902022006 | 75 | 63 | 0.0 | 0.0 | 0.00 | 0.00 | 0.00 | 84 | 1009.8 |
| 20260902021506 | 75 | 63 | 0.0 | 0.0 | 0.00 | 0.00 | 0.00 | 84 | 1009.8 |
| 20260902020506 | 76 | 63 | 1.0 | 2.0 | 0.00 | 0.00 | 0.00 | 83 | 1009.9 |
| 20260902020006 | 76 | 63 | 0.0 | 0.0 | 0.00 | 0.00 | 0.00 | 83 | 1009.8 |
| 20260902015506 | 75 | 63 | 0.0 | 1.0 | 0.00 | 0.00 | 0.00 | 83 | 1009.9 |
| 20260902015006 | 76 | 63 | 0.0 | 0.0 | 0.00 | 0.00 | 0.00 | 83 | 1009.8 |
| 20260902014506 | 76 | 63 | 0.0 | 0.0 | 0.00 | 0.00 | 0.00 | 83 | 1009.7 |
| 20260902014006 | 76 | 63 | 0.0 | 0.0 | 0.00 | 0.00 | 0.00 | 82 | 1009.6 |
| 20260902013506 | 76 | 63 | 0.0 | 0.0 | 0.00 | 0.00 | 0.00 | 81 | 1009.6 |
| 20260902013006 | 76 | 63 | 0.0 | 0.0 | 0.00 | 0.00 | 0.00 | 82 | 1009.7 |
| 20260902012507 | 76 | 63 | 0.0 | 0.0 | 0.00 | 0.00 | 0.00 | 81 | 1009.7 |
| 20260902012006 | 77 | 63 | 0.0 | 0.0 | 0.00 | 0.00 | 0.00 | 81 | 1009.7 |
| 20260902010506 | 77 | 63 | 0.0 | 0.0 | 0.00 | 0.00 | 0.00 | 80 | 1009.4 |
| 20260902010006 | 77 | 63 | 0.0 | 0.0 | 0.00 | 0.00 | 0.00 | 79 | 1009.5 |
| 20260902005506 | 78 | 63 | 0.0 | 0.0 | 0.00 | 0.00 | 0.00 | 78 | 1009.7 |
| 20260902005006 | 78 | 63 | 0.0 | 0.0 | 0.00 | 0.00 | 0.00 | 78 | 1009.7 |
| 20260902004506 | 78 | 63 | 0.0 | 0.0 | 0.00 | 0.00 | 0.00 | 77 | 1009.5 |
| 20260902004006 | 78 | 63 | 0.0 | 0.0 | 0.00 | 0.00 | 0.00 | 77 | 1009.6 |
| 20260902003506 | 78 | 63 | 0.0 | 0.0 | 0.00 | 0.00 | 0.00 | 77 | 1009.6 |
| 20260902002506 | 79 | 63 | 0.0 | 0.0 | 0.00 | 0.00 | 0.00 | 76 | 1009.6 |
| 20260902002006 | 79 | 63 | 0.0 | 0.0 | 0.00 | 0.00 | 0.00 | 75 | 1009.6 |
| 20260902001506 | 79 | 163 | 0.0 | 0.0 | 0.00 | 0.00 | 0.00 | 74 | 1009.6 |
| 20260902001006 | 80 | 163 | 0.0 | 0.0 | 0.00 | 0.00 | 0.00 | 76 | 1009.7 |
| 20260902000506 | 80 | 163 | 0.0 | 0.0 | 0.00 | 0.00 | 0.00 | 75 | 1009.8 |
| 20260902000006 | 80 | 163 | 0.0 | 0.0 | 0.00 | 0.00 | 0.00 | 74 | 1009.7 |
| 20260901235506 | 80 | 163 | 0.0 | 0.0 | 0.00 | 0.00 | 0.00 | 74 | 1009.6 |
| 20260901235006 | 80 | 163 | 0.0 | 0.0 | 0.00 | 0.00 | 0.00 | 75 | 1009.6 |
| 20260901234506 | 81 | 163 | 0.0 | 0.0 | 0.00 | 0.00 | 0.00 | 75 | 1009.7 |
| 20260901234006 | 81 | 163 | 0.0 | 0.0 | 0.00 | 0.00 | 0.00 | 74 | 1009.7 |
| 20260901233506 | 81 | 163 | 0.0 | 0.0 | 0.00 | 0.00 | 0.00 | 74 | 1009.7 |
| 20260901233007 | 81 | 163 | 0.0 | 0.0 | 0.00 | 0.00 | 0.00 | 74 | 1009.7 |
| 20260901232506 | 81 | 163 | 0.0 | 0.0 | 0.00 | 0.00 | 0.00 | 73 | 1009.7 |
| 20260901232006 | 81 | 163 | 0.0 | 0.0 | 0.00 | 0.00 | 0.00 | 72 | 1009.6 |
| 20260901231506 | 82 | 163 | 0.0 | 0.0 | 0.00 | 0.00 | 0.00 | 72 | 1009.6 |
| 20260901231007 | 82 | 163 | 0.0 | 0.0 | 0.00 | 0.00 | 0.00 | 73 | 1009.5 |
| 20260901230506 | 82 | 163 | 0.0 | 0.0 | 0.00 | 0.00 | 0.00 | 71 | 1009.4 |
| 20260901230006 | 82 | 163 | 0.0 | 0.0 | 0.00 | 0.00 | 0.00 | 69 | 1009.4 |
| 20260901225506 | 82 | 163 | 0.0 | 0.0 | 0.00 | 0.00 | 0.00 | 70 | 1009.4 |
| 20260901224506 | 82 | 163 | 0.0 | 0.0 | 0.00 | 0.00 | 0.00 | 72 | 1009.3 |
| 20260901224007 | 82 | 163 | 0.0 | 0.0 | 0.00 | 0.00 | 0.00 | 71 | 1009.4 |
| 20260901223507 | 82 | 163 | 0.0 | 0.0 | 0.00 | 0.00 | 0.00 | 71 | 1009.5 |
| 20260901222505 | 82 | 163 | 0.0 | 2.0 | 0.00 | 0.00 | 0.00 | 70 | 1009.5 |
| 20260901222006 | 83 | 163 | 1.0 | 2.0 | 0.00 | 0.00 | 0.00 | 69 | 1009.5 |
| 20260901221506 | 83 | 163 | 2.0 | 5.0 | 0.00 | 0.00 | 0.00 | 67 | 1009.5 |
| 20260901220506 | 83 | 163 | 0.0 | 1.0 | 0.00 | 0.00 | 0.00 | 68 | 1009.8 |
| 20260901220006 | 84 | 163 | 0.0 | 0.0 | 0.00 | 0.00 | 0.00 | 69 | 1010.0 |
| 20260901215505 | 84 | 163 | 0.0 | 0.0 | 0.00 | 0.00 | 0.00 | 66 | 1009.8 |
| 20260901215006 | 84 | 163 | 0.0 | 0.0 | 0.00 | 0.00 | 0.00 | 66 | 1009.8 |
| 20260901214506 | 84 | 163 | 0.0 | 0.0 | 0.00 | 0.00 | 0.00 | 66 | 1009.8 |
| 20260901214006 | 84 | 163 | 0.0 | 1.0 | 0.00 | 0.00 | 0.00 | 67 | 1009.8 |
| 20260901213506 | 84 | 163 | 0.0 | 0.0 | 0.00 | 0.00 | 0.00 | 63 | 1009.6 |
| 20260901213007 | 85 | 163 | 0.0 | 0.0 | 0.00 | 0.00 | 0.00 | 64 | 1009.6 |
| 20260901212506 | 85 | 163 | 0.0 | 0.0 | 0.00 | 0.00 | 0.00 | 63 | 1009.2 |
| 20260901211006 | 85 | 163 | 0.0 | 1.0 | 0.00 | 0.00 | 0.00 | 61 | 1009.6 |
| 20260901210506 | 85 | 163 | 0.0 | 0.0 | 0.00 | 0.00 | 0.00 | 59 | 1009.6 |
| 20260901205506 | 86 | 163 | 0.0 | 0.0 | 0.00 | 0.00 | 0.00 | 58 | 1009.4 |
| 20260901205006 | 86 | 163 | 0.0 | 1.0 | 0.00 | 0.00 | 0.00 | 55 | 1009.6 |
| 20260901204007 | 86 | 163 | 0.0 | 0.0 | 0.00 | 0.00 | 0.00 | 57 | 1009.3 |
| 20260901203506 | 86 | 163 | 0.0 | 1.0 | 0.00 | 0.00 | 0.00 | 57 | 1009.4 |
| 20260901203006 | 86 | 163 | 1.0 | 2.0 | 0.00 | 0.00 | 0.00 | 51 | 1009.4 |
| 20260901202006 | 87 | 166 | 0.0 | 3.0 | 0.00 | 0.00 | 0.00 | 54 | 1010.2 |
| 20260901201506 | 87 | 166 | 0.0 | 6.0 | 0.00 | 0.00 | 0.00 | 51 | 1010.0 |
| 20260901201007 | 87 | 166 | 2.0 | 6.0 | 0.00 | 0.00 | 0.00 | 50 | 1010.3 |
| 20260901200506 | 87 | 166 | 1.0 | 5.0 | 0.00 | 0.00 | 0.00 | 50 | 1010.4 |
| 20260901200006 | 87 | 166 | 2.0 | 5.0 | 0.00 | 0.00 | 0.00 | 50 | 1010.5 |
| 20260901195506 | 87 | 166 | 2.0 | 5.0 | 0.00 | 0.00 | 0.00 | 50 | 1010.5 |
| 20260901195007 | 87 | 162 | 1.0 | 5.0 | 0.00 | 0.00 | 0.00 | 53 | 1010.5 |
| 20260901194506 | 86 | 166 | 2.0 | 5.0 | 0.00 | 0.00 | 0.00 | 53 | 1010.4 |
| 20260901194006 | 86 | 115 | 1.0 | 2.0 | 0.00 | 0.00 | 0.00 | 55 | 1010.4 |
| 20260901193506 | 86 | 115 | 0.0 | 2.0 | 0.00 | 0.00 | 0.00 | 55 | 1010.4 |
| 20260901193006 | 86 | 115 | 2.0 | 3.0 | 0.00 | 0.00 | 0.00 | 52 | 1010.4 |
| 20260901192506 | 86 | 64 | 1.0 | 2.0 | 0.00 | 0.00 | 0.00 | 53 | 1010.3 |
| 20260901192006 | 87 | 42 | 0.0 | 2.0 | 0.00 | 0.00 | 0.00 | 57 | 1010.2 |
| 20260901191006 | 86 | 42 | 1.0 | 2.0 | 0.00 | 0.00 | 0.00 | 55 | 1010.4 |
| 20260901190506 | 86 | 42 | 0.0 | 0.0 | 0.00 | 0.00 | 0.00 | 57 | 1010.4 |
| 20260901190005 | 86 | 42 | 0.0 | 0.0 | 0.00 | 0.00 | 0.00 | 58 | 1010.4 |
| 20260901185506 | 86 | 42 | 0.0 | 0.0 | 0.00 | 0.00 | 0.00 | 58 | 1010.3 |
| 20260901185006 | 86 | 42 | 0.0 | 0.0 | 0.00 | 0.00 | 0.00 | 52 | 1010.4 |
| 20260901184506 | 86 | 42 | 0.0 | 0.0 | 0.00 | 0.00 | 0.00 | 53 | 1010.6 |
| 20260901184006 | 86 | 42 | 0.0 | 2.0 | 0.00 | 0.00 | 0.00 | 49 | 1010.7 |
| 20260901183506 | 86 | 42 | 0.0 | 1.0 | 0.00 | 0.00 | 0.00 | 49 | 1010.8 |
| 20260901183006 | 86 | 42 | 0.0 | 3.0 | 0.00 | 0.00 | 0.00 | 50 | 1010.8 |
| 20260901182506 | 86 | 42 | 1.0 | 3.0 | 0.00 | 0.00 | 0.00 | 50 | 1010.9 |
| 20260901182006 | 86 | 42 | 0.0 | 2.0 | 0.00 | 0.00 | 0.00 | 49 | 1011.0 |
| 20260901180506 | 86 | 42 | 0.0 | 1.0 | 0.00 | 0.00 | 0.00 | 55 | 1011.2 |
| 20260901175505 | 86 | 42 | 0.0 | 0.0 | 0.00 | 0.00 | 0.00 | 54 | 1011.4 |
| 20260901175006 | 86 | 42 | 0.0 | 0.0 | 0.00 | 0.00 | 0.00 | 52 | 1011.2 |
| 20260901174506 | 86 | 42 | 0.0 | 1.0 | 0.00 | 0.00 | 0.00 | 52 | 1011.2 |
| 20260901174008 | 86 | 42 | 0.0 | 2.0 | 0.00 | 0.00 | 0.00 | 46 | 1011.3 |
| 20260901173006 | 87 | 42 | 0.0 | 2.0 | 0.00 | 0.00 | 0.00 | 50 | 1011.3 |
| 20260901172506 | 86 | 42 | 0.0 | 2.0 | 0.00 | 0.00 | 0.00 | 48 | 1011.4 |
| 20260901171506 | 86 | 42 | 0.0 | 2.0 | 0.00 | 0.00 | 0.00 | 50 | 1011.4 |
| 20260901170506 | 86 | 43 | 1.0 | 3.0 | 0.00 | 0.00 | 0.00 | 50 | 1011.5 |
| 20260901170006 | 86 | 44 | 1.0 | 2.0 | 0.00 | 0.00 | 0.00 | 50 | 1011.5 |
| 20260901165506 | 86 | 45 | 0.0 | 2.0 | 0.00 | 0.00 | 0.00 | 53 | 1011.4 |
| 20260901165007 | 86 | 45 | 0.0 | 1.0 | 0.00 | 0.00 | 0.00 | 52 | 1011.4 |
| 20260901164006 | 86 | 45 | 0.0 | 2.0 | 0.00 | 0.00 | 0.00 | 50 | 1011.4 |
| 20260901163506 | 85 | 45 | 0.0 | 2.0 | 0.00 | 0.00 | 0.00 | 50 | 1011.5 |
| 20260901163006 | 85 | 51 | 0.0 | 2.0 | 0.00 | 0.00 | 0.00 | 53 | 1011.5 |
| 20260901162506 | 84 | 51 | 1.0 | 2.0 | 0.00 | 0.00 | 0.00 | 53 | 1011.5 |
| 20260901161007 | 83 | 49 | 0.0 | 2.0 | 0.00 | 0.00 | 0.00 | 56 | 1011.4 |
| 20260901160506 | 83 | 49 | 0.0 | 1.0 | 0.00 | 0.00 | 0.00 | 56 | 1011.4 |
| 20260901155506 | 82 | 49 | 0.0 | 2.0 | 0.00 | 0.00 | 0.00 | 60 | 1011.5 |
| 20260901155006 | 82 | 49 | 1.0 | 2.0 | 0.00 | 0.00 | 0.00 | 64 | 1011.4 |
| 20260901154006 | 81 | 63 | 1.0 | 2.0 | 0.00 | 0.00 | 0.00 | 64 | 1011.5 |
| 20260901153506 | 80 | 63 | 0.0 | 2.0 | 0.00 | 0.00 | 0.00 | 65 | 1011.4 |
| 20260901152506 | 79 | 63 | 0.0 | 2.0 | 0.00 | 0.00 | 0.00 | 72 | 1011.4 |
| 20260901152007 | 78 | 63 | 0.0 | 1.0 | 0.00 | 0.00 | 0.00 | 75 | 1011.3 |
| 20260901151506 | 77 | 63 | 1.0 | 2.0 | 0.00 | 0.00 | 0.00 | 76 | 1011.3 |
| 20260901151006 | 77 | 63 | 1.0 | 3.0 | 0.00 | 0.00 | 0.00 | 78 | 1011.3 |
| 20260901150506 | 76 | 84 | 1.0 | 3.0 | 0.00 | 0.00 | 0.00 | 80 | 1011.4 |
| 20260901150006 | 75 | 85 | 0.0 | 2.0 | 0.00 | 0.00 | 0.00 | 83 | 1011.4 |
| 20260901145506 | 74 | 85 | 0.0 | 2.0 | 0.00 | 0.00 | 0.00 | 87 | 1011.5 |
| 20260901145006 | 73 | 85 | 0.0 | 2.0 | 0.00 | 0.00 | 0.00 | 88 | 1011.5 |
| 20260901144506 | 72 | 88 | 0.0 | 1.0 | 0.00 | 0.00 | 0.00 | 90 | 1011.5 |
| 20260901143506 | 71 | 88 | 0.0 | 2.0 | 0.00 | 0.00 | 0.00 | 91 | 1011.5 |
| 20260901143006 | 70 | 80 | 0.0 | 2.0 | 0.00 | 0.00 | 0.00 | 91 | 1011.6 |
| 20260901142505 | 70 | 80 | 1.0 | 2.0 | 0.00 | 0.00 | 0.00 | 91 | 1011.6 |
| 20260901142006 | 69 | 80 | 0.0 | 1.0 | 0.00 | 0.00 | 0.00 | 92 | 1011.6 |
| 20260901141006 | 69 | 80 | 0.0 | 0.0 | 0.00 | 0.00 | 0.00 | 92 | 1011.6 |
| 20260901140506 | 68 | 80 | 0.0 | 0.0 | 0.00 | 0.00 | 0.00 | 92 | 1011.5 |
| 20260901140006 | 68 | 80 | 0.0 | 0.0 | 0.00 | 0.00 | 0.00 | 92 | 1011.6 |
| 20260901135506 | 68 | 80 | 0.0 | 0.0 | 0.00 | 0.00 | 0.00 | 92 | 1011.6 |
| 20260901135006 | 68 | 80 | 0.0 | 0.0 | 0.00 | 0.00 | 0.00 | 92 | 1011.7 |
| 20260901134505 | 68 | 80 | 0.0 | 0.0 | 0.00 | 0.00 | 0.00 | 92 | 1011.6 |
| 20260901134006 | 67 | 80 | 0.0 | 0.0 | 0.00 | 0.00 | 0.00 | 92 | 1011.6 |
| 20260901133506 | 67 | 80 | 0.0 | 0.0 | 0.00 | 0.00 | 0.00 | 92 | 1011.6 |
| 20260901132006 | 67 | 80 | 0.0 | 0.0 | 0.00 | 0.00 | 0.00 | 92 | 1011.5 |
| 20260901131006 | 67 | 80 | 0.0 | 0.0 | 0.00 | 0.00 | 0.00 | 93 | 1011.5 |
| 20260901130506 | 66 | 80 | 0.0 | 0.0 | 0.00 | 0.00 | 0.00 | 92 | 1011.4 |
| 20260901130005 | 66 | 80 | 0.0 | 0.0 | 0.00 | 0.00 | 0.00 | 92 | 1011.4 |
| 20260901125511 | 66 | 80 | 0.0 | 1.0 | 0.00 | 0.00 | 0.00 | 92 | 1011.4 |
| 20260901125006 | 66 | 80 | 0.0 | 1.0 | 0.00 | 0.00 | 0.00 | 93 | 1011.4 |
| 20260901124006 | 65 | 80 | 0.0 | 0.0 | 0.00 | 0.00 | 0.00 | 92 | 1011.3 |
| 20260901123006 | 65 | 80 | 0.0 | 0.0 | 0.00 | 0.00 | 0.00 | 92 | 1011.2 |
| 20260901122506 | 65 | 80 | 0.0 | 0.0 | 0.00 | 0.00 | 0.00 | 92 | 1011.2 |
| 20260901122006 | 64 | 80 | 0.0 | 1.0 | 0.00 | 0.00 | 0.00 | 92 | 1011.2 |
| 20260901121505 | 64 | 117 | 0.0 | 0.0 | 0.00 | 0.00 | 0.00 | 92 | 1011.2 |
| 20260901121006 | 64 | 117 | 0.0 | 0.0 | 0.00 | 0.00 | 0.00 | 92 | 1011.2 |
| 20260901120506 | 64 | 117 | 0.0 | 0.0 | 0.00 | 0.00 | 0.00 | 92 | 1011.1 |
| 20260901120005 | 64 | 117 | 0.0 | 0.0 | 0.00 | 0.00 | 0.00 | 92 | 1011.0 |
| 20260901115006 | 64 | 117 | 0.0 | 0.0 | 0.00 | 0.00 | 0.00 | 92 | 1011.0 |
| 20260901114506 | 64 | 117 | 0.0 | 0.0 | 0.00 | 0.00 | 0.00 | 92 | 1010.9 |
| 20260901114006 | 64 | 117 | 0.0 | 0.0 | 0.00 | 0.00 | 0.00 | 92 | 1010.8 |
| 20260901113506 | 64 | 117 | 0.0 | 0.0 | 0.00 | 0.00 | 0.00 | 92 | 1010.8 |
| 20260901113006 | 64 | 117 | 0.0 | 0.0 | 0.00 | 0.00 | 0.00 | 92 | 1010.8 |
| 20260901112505 | 64 | 117 | 0.0 | 0.0 | 0.00 | 0.00 | 0.00 | 92 | 1010.8 |
| 20260901112006 | 64 | 117 | 0.0 | 0.0 | 0.00 | 0.00 | 0.00 | 92 | 1010.8 |
| 20260901111505 | 64 | 117 | 0.0 | 0.0 | 0.00 | 0.00 | 0.00 | 91 | 1010.8 |
| 20260901111006 | 64 | 117 | 0.0 | 0.0 | 0.00 | 0.00 | 0.00 | 91 | 1010.7 |